TRA5888 LGSA-EHAM
Flight info
| Callsign | TRA5888 |
|---|---|
| Flight time | N/A |
| Altitude | 36000 |
| Route | SOKRI UY151 DDM DCT XANIS UL613 YNN UL604 DIMIS DCT PODET DCT NEMAL DCT SIMBA DCT GASKA DCT MAPOX DCT NORKU |
| Aircraft | A21N/M-SBDE2E3FGHIJ1J5M1P2RWXYZ/LB1D1G1 |
Departure
| Time | 2026-05-08 17:44 |
|---|---|
| Airport | Chania International Airport (LGSA) |
Arrival
| Time | N/A |
|---|---|
| Airport | Amsterdam Airport Schiphol (EHAM) |
| Time | Latitude | Longitude | Altitude | Speed | Heading |
|---|---|---|---|---|---|
| 2026-05-08 17:01 | 35.53872 | 24.14061 | 503 ft | 0 kts | 21° |
| 2026-05-08 17:32 | 35.53870 | 24.14060 | 503 ft | 3 kts | 21° |
| 2026-05-08 17:32 | 35.53845 | 24.14050 | 503 ft | 5 kts | 13° |
| 2026-05-08 17:32 | 35.53818 | 24.14045 | 503 ft | 4 kts | 358° |
| 2026-05-08 17:33 | 35.53794 | 24.14052 | 503 ft | 4 kts | 320° |
| 2026-05-08 17:33 | 35.53786 | 24.14063 | 503 ft | 1 kts | 291° |
| 2026-05-08 17:38 | 35.53787 | 24.14059 | 503 ft | 1 kts | 291° |
| 2026-05-08 17:38 | 35.53791 | 24.14043 | 503 ft | 3 kts | 277° |
| 2026-05-08 17:38 | 35.53777 | 24.14012 | 503 ft | 6 kts | 214° |
| 2026-05-08 17:38 | 35.53731 | 24.13989 | 503 ft | 9 kts | 201° |
| 2026-05-08 17:39 | 35.53707 | 24.13919 | 504 ft | 11 kts | 284° |
| 2026-05-08 17:39 | 35.53738 | 24.13820 | 504 ft | 13 kts | 291° |
| 2026-05-08 17:39 | 35.53774 | 24.13707 | 504 ft | 15 kts | 291° |
| 2026-05-08 17:39 | 35.53814 | 24.13585 | 503 ft | 16 kts | 291° |
| 2026-05-08 17:40 | 35.53856 | 24.13455 | 503 ft | 17 kts | 291° |
| 2026-05-08 17:40 | 35.53900 | 24.13321 | 503 ft | 14 kts | 291° |
| 2026-05-08 17:40 | 35.53906 | 24.13232 | 503 ft | 11 kts | 222° |
| 2026-05-08 17:40 | 35.53831 | 24.13189 | 503 ft | 11 kts | 202° |
| 2026-05-08 17:41 | 35.53759 | 24.13197 | 503 ft | 12 kts | 134° |
| 2026-05-08 17:41 | 35.53722 | 24.13292 | 503 ft | 13 kts | 111° |
| 2026-05-08 17:41 | 35.53687 | 24.13400 | 502 ft | 13 kts | 111° |
| 2026-05-08 17:41 | 35.53674 | 24.13442 | 503 ft | 2 kts | 111° |
| 2026-05-08 17:42 | 35.53672 | 24.13450 | 503 ft | 0 kts | 111° |
| 2026-05-08 17:43 | 35.53647 | 24.13527 | 504 ft | 35 kts | 111° |
| 2026-05-08 17:43 | 35.53466 | 24.14081 | 504 ft | 103 kts | 111° |
| 2026-05-08 17:43 | 35.53129 | 24.15117 | 488 ft | 156 kts | 112° |
| 2026-05-08 17:43 | 35.52735 | 24.16444 | 827 ft | 167 kts | 110° |
| 2026-05-08 17:44 | 35.52374 | 24.17817 | 1371 ft | 172 kts | 107° |
| 2026-05-08 17:44 | 35.52128 | 24.19300 | 1920 ft | 184 kts | 105° |
| 2026-05-08 17:44 | 35.51830 | 24.20871 | 2465 ft | 196 kts | 107° |
| 2026-05-08 17:44 | 35.51803 | 24.22607 | 2949 ft | 217 kts | 74° |
| 2026-05-08 17:45 | 35.52720 | 24.24107 | 3466 ft | 230 kts | 34° |
| 2026-05-08 17:45 | 35.54248 | 24.24628 | 4093 ft | 232 kts | 352° |
| 2026-05-08 17:45 | 35.55709 | 24.23936 | 4780 ft | 225 kts | 316° |
| 2026-05-08 17:45 | 35.56803 | 24.22578 | 5528 ft | 223 kts | 309° |
| 2026-05-08 17:46 | 35.57874 | 24.21206 | 6322 ft | 222 kts | 311° |
| 2026-05-08 17:46 | 35.58992 | 24.19877 | 6987 ft | 230 kts | 313° |
| 2026-05-08 17:46 | 35.60219 | 24.18486 | 7310 ft | 249 kts | 314° |
| 2026-05-08 17:46 | 35.61548 | 24.17025 | 7744 ft | 262 kts | 314° |
| 2026-05-08 17:47 | 35.62925 | 24.15529 | 8437 ft | 266 kts | 314° |
| 2026-05-08 17:47 | 35.64319 | 24.14023 | 9231 ft | 267 kts | 314° |
| 2026-05-08 17:47 | 35.65720 | 24.12513 | 10053 ft | 268 kts | 314° |
| 2026-05-08 17:47 | 35.66661 | 24.11496 | 10370 ft | 278 kts | 314° |
| 2026-05-08 17:48 | 35.68696 | 24.09294 | 10782 ft | 304 kts | 314° |
| 2026-05-08 17:48 | 35.70314 | 24.07548 | 11305 ft | 313 kts | 314° |
| 2026-05-08 17:48 | 35.71962 | 24.05775 | 11973 ft | 317 kts | 314° |
| 2026-05-08 17:48 | 35.73632 | 24.03976 | 12656 ft | 321 kts | 314° |
| 2026-05-08 17:49 | 35.75323 | 24.02152 | 13352 ft | 325 kts | 315° |
| 2026-05-08 17:49 | 35.77027 | 24.00310 | 14021 ft | 328 kts | 315° |
| 2026-05-08 17:49 | 35.78753 | 23.98447 | 14618 ft | 331 kts | 315° |
| 2026-05-08 17:49 | 35.80494 | 23.96566 | 15209 ft | 335 kts | 315° |
| 2026-05-08 17:50 | 35.82254 | 23.94663 | 15811 ft | 338 kts | 315° |
| 2026-05-08 17:50 | 35.84026 | 23.92733 | 16409 ft | 342 kts | 315° |
| 2026-05-08 17:50 | 35.85823 | 23.90787 | 16987 ft | 346 kts | 316° |
| 2026-05-08 17:50 | 35.87616 | 23.88849 | 17556 ft | 349 kts | 316° |
| 2026-05-08 17:51 | 35.89450 | 23.86863 | 18134 ft | 353 kts | 316° |
| 2026-05-08 17:51 | 35.91298 | 23.84859 | 18654 ft | 356 kts | 316° |
| 2026-05-08 17:51 | 35.93162 | 23.82834 | 19151 ft | 359 kts | 316° |
| 2026-05-08 17:51 | 35.95069 | 23.80762 | 19651 ft | 361 kts | 316° |
| 2026-05-08 17:52 | 35.96937 | 23.78732 | 20143 ft | 364 kts | 316° |
| 2026-05-08 17:52 | 35.98846 | 23.76655 | 20614 ft | 367 kts | 315° |
| 2026-05-08 17:52 | 36.02700 | 23.72449 | 21602 ft | 372 kts | 315° |
| 2026-05-08 17:53 | 36.04648 | 23.70326 | 22100 ft | 375 kts | 315° |
| 2026-05-08 17:53 | 36.06609 | 23.68189 | 22599 ft | 377 kts | 315° |
| 2026-05-08 17:53 | 36.08582 | 23.66032 | 23064 ft | 380 kts | 315° |
| 2026-05-08 17:53 | 36.10570 | 23.63862 | 23521 ft | 383 kts | 315° |
| 2026-05-08 17:54 | 36.12570 | 23.61678 | 23918 ft | 385 kts | 315° |
| 2026-05-08 17:54 | 36.14585 | 23.59475 | 24320 ft | 387 kts | 315° |
| 2026-05-08 17:54 | 36.16608 | 23.57259 | 24713 ft | 388 kts | 315° |
| 2026-05-08 17:54 | 36.18635 | 23.55039 | 25102 ft | 390 kts | 315° |
| 2026-05-08 17:55 | 36.20670 | 23.52807 | 25484 ft | 392 kts | 315° |
| 2026-05-08 17:55 | 36.22719 | 23.50579 | 25861 ft | 394 kts | 316° |
| 2026-05-08 17:55 | 36.24955 | 23.48590 | 26229 ft | 399 kts | 325° |
| 2026-05-08 17:55 | 36.27481 | 23.47102 | 26605 ft | 407 kts | 335° |
| 2026-05-08 17:56 | 36.30247 | 23.46206 | 26975 ft | 414 kts | 344° |
| 2026-05-08 17:56 | 36.33091 | 23.45622 | 27325 ft | 416 kts | 345° |
| 2026-05-08 17:56 | 36.35956 | 23.45072 | 27649 ft | 418 kts | 345° |
| 2026-05-08 17:56 | 36.38834 | 23.44503 | 27953 ft | 420 kts | 345° |
| 2026-05-08 17:57 | 36.41726 | 23.43922 | 28253 ft | 421 kts | 345° |
| 2026-05-08 17:57 | 36.44619 | 23.43325 | 28569 ft | 423 kts | 344° |
| 2026-05-08 17:57 | 36.47525 | 23.42722 | 28861 ft | 424 kts | 345° |
| 2026-05-08 17:57 | 36.50446 | 23.42123 | 29146 ft | 426 kts | 345° |
| 2026-05-08 17:58 | 36.53378 | 23.41519 | 29454 ft | 428 kts | 344° |
| 2026-05-08 17:58 | 36.56315 | 23.40903 | 29748 ft | 429 kts | 344° |
| 2026-05-08 17:58 | 36.59264 | 23.40278 | 30025 ft | 431 kts | 343° |
| 2026-05-08 17:58 | 36.62224 | 23.39652 | 30270 ft | 432 kts | 344° |
| 2026-05-08 17:59 | 36.65201 | 23.39027 | 30497 ft | 434 kts | 344° |
| 2026-05-08 17:59 | 36.68186 | 23.38403 | 30723 ft | 436 kts | 344° |
| 2026-05-08 17:59 | 36.71182 | 23.37777 | 30939 ft | 438 kts | 344° |
| 2026-05-08 17:59 | 36.74189 | 23.37166 | 31149 ft | 439 kts | 344° |
| 2026-05-08 18:00 | 36.77213 | 23.36552 | 31354 ft | 441 kts | 343° |
| 2026-05-08 18:00 | 36.83282 | 23.35295 | 31836 ft | 442 kts | 343° |
| 2026-05-08 18:00 | 36.86310 | 23.34664 | 32108 ft | 441 kts | 343° |
| 2026-05-08 18:01 | 36.89334 | 23.34031 | 32362 ft | 440 kts | 343° |
| 2026-05-08 18:01 | 36.92353 | 23.33403 | 32606 ft | 440 kts | 343° |
| 2026-05-08 18:01 | 36.95375 | 23.32774 | 32852 ft | 440 kts | 343° |
| 2026-05-08 18:01 | 36.98393 | 23.32142 | 33112 ft | 439 kts | 343° |
| 2026-05-08 18:02 | 37.01406 | 23.31515 | 33375 ft | 438 kts | 343° |
| 2026-05-08 18:02 | 37.03392 | 23.31100 | 33543 ft | 437 kts | 343° |
| 2026-05-08 18:02 | 37.07406 | 23.30264 | 33845 ft | 436 kts | 343° |
| 2026-05-08 18:02 | 37.10396 | 23.29641 | 34054 ft | 436 kts | 343° |
| 2026-05-08 18:03 | 37.13388 | 23.29016 | 34226 ft | 435 kts | 343° |
| 2026-05-08 18:03 | 37.16373 | 23.28396 | 34396 ft | 435 kts | 343° |
| 2026-05-08 18:03 | 37.19355 | 23.27769 | 34565 ft | 434 kts | 343° |
| 2026-05-08 18:03 | 37.22332 | 23.27140 | 34749 ft | 434 kts | 343° |
| 2026-05-08 18:04 | 37.25304 | 23.26512 | 34963 ft | 432 kts | 343° |
| 2026-05-08 18:04 | 37.28263 | 23.25885 | 35139 ft | 430 kts | 343° |
| 2026-05-08 18:04 | 37.31204 | 23.25262 | 35290 ft | 429 kts | 343° |
| 2026-05-08 18:04 | 37.34156 | 23.24633 | 35426 ft | 429 kts | 343° |
| 2026-05-08 18:05 | 37.37095 | 23.24008 | 35565 ft | 429 kts | 343° |
| 2026-05-08 18:05 | 37.40034 | 23.23384 | 35702 ft | 428 kts | 343° |
| 2026-05-08 18:05 | 37.42967 | 23.22753 | 35824 ft | 428 kts | 343° |
| 2026-05-08 18:05 | 37.45870 | 23.22020 | 35962 ft | 422 kts | 337° |
| 2026-05-08 18:06 | 37.48580 | 23.20730 | 36064 ft | 412 kts | 326° |
| 2026-05-08 18:06 | 37.50978 | 23.18852 | 36095 ft | 404 kts | 318° |
| 2026-05-08 18:06 | 37.55469 | 23.14622 | 36077 ft | 402 kts | 317° |
| 2026-05-08 18:07 | 37.59933 | 23.10440 | 36064 ft | 403 kts | 318° |
| 2026-05-08 18:07 | 37.64445 | 23.06248 | 36063 ft | 403 kts | 318° |
| 2026-05-08 18:08 | 37.68953 | 23.02057 | 36067 ft | 402 kts | 318° |
| 2026-05-08 18:08 | 37.73445 | 22.97875 | 36079 ft | 400 kts | 318° |
| 2026-05-08 18:09 | 37.77890 | 22.93730 | 36068 ft | 400 kts | 317° |
| 2026-05-08 18:09 | 37.82370 | 22.89539 | 36064 ft | 400 kts | 318° |
| 2026-05-08 18:10 | 37.86119 | 22.86030 | 36064 ft | 402 kts | 317° |
| 2026-05-08 18:10 | 37.90591 | 22.81828 | 36069 ft | 402 kts | 318° |
| 2026-05-08 18:11 | 37.95070 | 22.77625 | 36069 ft | 401 kts | 318° |
| 2026-05-08 18:11 | 37.99531 | 22.73428 | 36087 ft | 399 kts | 318° |
| 2026-05-08 18:12 | 38.03972 | 22.69246 | 36084 ft | 399 kts | 317° |
| 2026-05-08 18:12 | 38.08411 | 22.65060 | 36070 ft | 398 kts | 318° |
| 2026-05-08 18:13 | 38.12823 | 22.60894 | 36070 ft | 399 kts | 317° |
| 2026-05-08 18:13 | 38.17261 | 22.56689 | 36062 ft | 399 kts | 317° |
| 2026-05-08 18:14 | 38.21702 | 22.52488 | 36070 ft | 397 kts | 317° |
| 2026-05-08 18:14 | 38.26141 | 22.48275 | 36111 ft | 398 kts | 317° |
| 2026-05-08 18:15 | 38.30548 | 22.44085 | 36086 ft | 394 kts | 317° |
| 2026-05-08 18:15 | 38.34944 | 22.39900 | 36084 ft | 395 kts | 317° |
| 2026-05-08 18:16 | 38.39332 | 22.35713 | 36078 ft | 394 kts | 317° |
| 2026-05-08 18:16 | 38.43717 | 22.31488 | 36095 ft | 394 kts | 317° |
| 2026-05-08 18:17 | 38.48107 | 22.27276 | 36085 ft | 395 kts | 317° |
| 2026-05-08 18:17 | 38.52501 | 22.23067 | 36093 ft | 394 kts | 317° |
| 2026-05-08 18:18 | 38.56886 | 22.18864 | 36099 ft | 393 kts | 316° |
| 2026-05-08 18:18 | 38.60929 | 22.14210 | 36101 ft | 391 kts | 312° |
| 2026-05-08 18:19 | 38.64890 | 22.09449 | 36109 ft | 390 kts | 312° |
| 2026-05-08 18:19 | 38.68868 | 22.04710 | 36104 ft | 390 kts | 312° |
| 2026-05-08 18:20 | 38.72855 | 21.99974 | 36105 ft | 391 kts | 312° |
| 2026-05-08 18:20 | 38.76834 | 21.95231 | 36108 ft | 391 kts | 312° |
| 2026-05-08 18:21 | 38.80813 | 21.90489 | 36124 ft | 390 kts | 312° |
| 2026-05-08 18:21 | 38.84769 | 21.85766 | 36108 ft | 388 kts | 312° |
| 2026-05-08 18:22 | 38.88709 | 21.81047 | 36109 ft | 388 kts | 312° |
| 2026-05-08 18:22 | 38.92626 | 21.76353 | 36104 ft | 387 kts | 312° |
| 2026-05-08 18:23 | 38.96564 | 21.71621 | 36109 ft | 387 kts | 312° |
| 2026-05-08 18:23 | 39.00515 | 21.66898 | 36104 ft | 390 kts | 313° |
| 2026-05-08 18:24 | 39.04481 | 21.62153 | 36105 ft | 388 kts | 312° |
| 2026-05-08 18:24 | 39.08428 | 21.57385 | 36122 ft | 390 kts | 312° |
| 2026-05-08 18:25 | 39.12383 | 21.52602 | 36109 ft | 389 kts | 312° |
| 2026-05-08 18:25 | 39.16322 | 21.47841 | 36098 ft | 389 kts | 312° |
| 2026-05-08 18:26 | 39.20273 | 21.43070 | 36093 ft | 390 kts | 312° |
| 2026-05-08 18:26 | 39.24221 | 21.38280 | 36100 ft | 387 kts | 312° |
| 2026-05-08 18:27 | 39.27489 | 21.34313 | 36091 ft | 389 kts | 312° |
| 2026-05-08 18:27 | 39.32089 | 21.28716 | 36094 ft | 387 kts | 312° |
| 2026-05-08 18:28 | 39.36006 | 21.23926 | 36137 ft | 390 kts | 312° |
| 2026-05-08 18:28 | 39.39800 | 21.19280 | 36104 ft | 389 kts | 312° |
| 2026-05-08 18:29 | 39.43745 | 21.14454 | 36094 ft | 391 kts | 312° |
| 2026-05-08 18:29 | 39.47683 | 21.09632 | 36085 ft | 389 kts | 312° |
| 2026-05-08 18:30 | 39.51612 | 21.04819 | 36081 ft | 389 kts | 312° |
| 2026-05-08 18:30 | 39.55552 | 20.99973 | 36082 ft | 392 kts | 312° |
| 2026-05-08 18:31 | 39.59482 | 20.95126 | 36081 ft | 389 kts | 312° |
| 2026-05-08 18:31 | 39.63399 | 20.90297 | 36084 ft | 389 kts | 312° |
| 2026-05-08 18:32 | 39.67324 | 20.85445 | 36080 ft | 390 kts | 312° |
| 2026-05-08 18:32 | 39.71518 | 20.81216 | 36083 ft | 401 kts | 326° |
| 2026-05-08 18:33 | 39.76556 | 20.78120 | 36086 ft | 402 kts | 329° |
| 2026-05-08 18:33 | 39.81633 | 20.75080 | 36081 ft | 401 kts | 329° |
| 2026-05-08 18:34 | 39.86705 | 20.72007 | 36074 ft | 402 kts | 329° |
| 2026-05-08 18:34 | 39.91779 | 20.68921 | 36078 ft | 404 kts | 329° |
| 2026-05-08 18:35 | 39.96882 | 20.65806 | 36054 ft | 404 kts | 329° |
| 2026-05-08 18:35 | 40.01975 | 20.62672 | 36041 ft | 406 kts | 329° |
| 2026-05-08 18:36 | 40.05142 | 20.60730 | 36042 ft | 405 kts | 329° |
| 2026-05-08 18:37 | 40.05144 | 20.60729 | 36042 ft | 405 kts | 329° |
| 2026-05-08 18:38 | 40.05145 | 20.60728 | 36042 ft | 405 kts | 329° |
| 2026-05-08 18:40 | 40.05151 | 20.60724 | 36042 ft | 404 kts | 329° |
| 2026-05-08 18:53 | 40.05168 | 20.60714 | 36042 ft | 395 kts | 329° |
| 2026-05-08 18:53 | 40.05174 | 20.60710 | 36042 ft | 387 kts | 149° |
| 2026-05-08 18:57 | 40.05175 | 20.60710 | 36042 ft | 394 kts | 149° |
| 2026-05-08 19:55 | 40.05219 | 20.60683 | 36042 ft | 379 kts | 329° |